Terminal Aerodrome Forecast
Issued by NWS

Home | Current Version | Previous Version | Text Only | Print | Product List | Glossary On
Versions: 1 2 3 4 5 6 7 8 9 10 11 12 13 14 15 16 17 18
000
FTUS44 KBMX 031133
TAFTOI
TAF
KTOI 031133Z 0312/0412 00000KT 6SM SHRA BR BKN050 BKN100
     FM031500 28003KT P6SM SCT050 BKN120
     FM031800 27006KT P6SM VCTS SCT040CB BKN250=

USA.gov is the U.S. government's official web portal to all federal, state and local government web resources and services.